Urbana, Illinois
Current Conditions -  °F | °C
As of 11:53 PM on Tuesday 25 Nov 2014 (Local Time) from KCMI Reporting Station
Clear Clear  
Wind Chill: 12°   Ceiling: Unl
Heat Index: 21°   Visibility: 8mi
Dew Point: 18°   Wind: 7mph
Humidity: 88%   Direction: 110°ESE
Pressure: 30.17"   Gusts: NA
Location:  40.12°N, 88.2°W
Report Text: KCMI 260553Z AUTO 11006KT 8SM CLR M06/M08 A3017 RMK AO2 SLP225 I1000 I6000 T10611078 11022 21067 400001067 58012 $
Loading
Personal Weather Stations






























Interactive Weather Map New forecast layout! Learn more

10-Day Weather Forecast

Advertisements
Track Severe Weather on mobile